sensor_id;sensor_type;location;lat;lon;timestamp;P1;durP1;ratioP1;P2;durP2;ratioP2
19889;SDS011;10107;51.198;6.824;2022-10-18T00:01:25;5.28;;;3.63;;
19889;SDS011;10107;51.198;6.824;2022-10-18T00:05:26;4.47;;;3.20;;
19889;SDS011;10107;51.198;6.824;2022-10-18T00:09:30;4.93;;;3.40;;
19889;SDS011;10107;51.198;6.824;2022-10-18T00:13:31;3.17;;;2.30;;
19889;SDS011;10107;51.198;6.824;2022-10-18T00:17:34;4.70;;;3.72;;
19889;SDS011;10107;51.198;6.824;2022-10-18T00:21:36;6.25;;;4.38;;
19889;SDS011;10107;51.198;6.824;2022-10-18T00:25:40;4.97;;;3.80;;
19889;SDS011;10107;51.198;6.824;2022-10-18T00:29:42;5.22;;;4.13;;
19889;SDS011;10107;51.198;6.824;2022-10-18T00:33:44;4.70;;;3.88;;
19889;SDS011;10107;51.198;6.824;2022-10-18T00:37:49;6.70;;;3.78;;
19889;SDS011;10107;51.198;6.824;2022-10-18T00:41:53;4.13;;;3.35;;
19889;SDS011;10107;51.198;6.824;2022-10-18T00:45:54;4.90;;;3.80;;
19889;SDS011;10107;51.198;6.824;2022-10-18T00:49:56;4.65;;;4.05;;
19889;SDS011;10107;51.198;6.824;2022-10-18T00:54:02;4.50;;;3.58;;
19889;SDS011;10107;51.198;6.824;2022-10-18T00:58:08;4.72;;;3.70;;
19889;SDS011;10107;51.198;6.824;2022-10-18T01:02:11;4.97;;;3.95;;
19889;SDS011;10107;51.198;6.824;2022-10-18T01:06:14;6.38;;;3.83;;
19889;SDS011;10107;51.198;6.824;2022-10-18T01:10:18;4.93;;;3.60;;
19889;SDS011;10107;51.198;6.824;2022-10-18T01:14:32;4.22;;;3.35;;
19889;SDS011;10107;51.198;6.824;2022-10-18T01:18:42;4.22;;;3.45;;
19889;SDS011;10107;51.198;6.824;2022-10-18T01:22:49;4.55;;;3.45;;
19889;SDS011;10107;51.198;6.824;2022-10-18T01:27:03;5.30;;;3.85;;
19889;SDS011;10107;51.198;6.824;2022-10-18T01:31:22;4.72;;;3.53;;
19889;SDS011;10107;51.198;6.824;2022-10-18T01:35:31;4.05;;;3.22;;
19889;SDS011;10107;51.198;6.824;2022-10-18T01:39:39;4.47;;;3.40;;
19889;SDS011;10107;51.198;6.824;2022-10-18T01:43:43;4.00;;;3.13;;
19889;SDS011;10107;51.198;6.824;2022-10-18T01:47:49;4.07;;;3.45;;
19889;SDS011;10107;51.198;6.824;2022-10-18T01:51:52;4.03;;;3.28;;
19889;SDS011;10107;51.198;6.824;2022-10-18T01:55:58;5.10;;;3.53;;
19889;SDS011;10107;51.198;6.824;2022-10-18T02:00:20;4.45;;;3.75;;
19889;SDS011;10107;51.198;6.824;2022-10-18T02:04:28;4.55;;;3.47;;
19889;SDS011;10107;51.198;6.824;2022-10-18T02:08:34;3.78;;;3.10;;
19889;SDS011;10107;51.198;6.824;2022-10-18T02:12:39;5.72;;;3.85;;
19889;SDS011;10107;51.198;6.824;2022-10-18T02:16:47;5.20;;;3.38;;
19889;SDS011;10107;51.198;6.824;2022-10-18T02:20:52;4.97;;;3.67;;
19889;SDS011;10107;51.198;6.824;2022-10-18T02:24:55;4.30;;;3.10;;
19889;SDS011;10107;51.198;6.824;2022-10-18T02:29:00;4.05;;;3.03;;
19889;SDS011;10107;51.198;6.824;2022-10-18T02:33:03;4.57;;;3.10;;
19889;SDS011;10107;51.198;6.824;2022-10-18T02:37:11;3.72;;;3.00;;
19889;SDS011;10107;51.198;6.824;2022-10-18T02:41:20;3.58;;;2.80;;
19889;SDS011;10107;51.198;6.824;2022-10-18T02:45:23;3.88;;;3.17;;
19889;SDS011;10107;51.198;6.824;2022-10-18T02:49:26;4.45;;;3.33;;
19889;SDS011;10107;51.198;6.824;2022-10-18T02:53:29;4.10;;;3.33;;
19889;SDS011;10107;51.198;6.824;2022-10-18T02:57:30;4.17;;;3.47;;
19889;SDS011;10107;51.198;6.824;2022-10-18T03:01:32;4.03;;;3.40;;
19889;SDS011;10107;51.198;6.824;2022-10-18T03:05:35;4.10;;;3.33;;
19889;SDS011;10107;51.198;6.824;2022-10-18T03:09:38;4.25;;;3.47;;
19889;SDS011;10107;51.198;6.824;2022-10-18T03:13:39;5.43;;;3.53;;
19889;SDS011;10107;51.198;6.824;2022-10-18T03:17:41;4.68;;;3.78;;
19889;SDS011;10107;51.198;6.824;2022-10-18T03:21:43;5.07;;;3.53;;
19889;SDS011;10107;51.198;6.824;2022-10-18T03:25:46;4.10;;;3.28;;
19889;SDS011;10107;51.198;6.824;2022-10-18T03:29:48;5.47;;;3.97;;
19889;SDS011;10107;51.198;6.824;2022-10-18T03:33:49;5.82;;;3.85;;
19889;SDS011;10107;51.198;6.824;2022-10-18T03:37:51;4.43;;;3.47;;
19889;SDS011;10107;51.198;6.824;2022-10-18T03:41:54;5.65;;;4.50;;
19889;SDS011;10107;51.198;6.824;2022-10-18T03:45:56;4.20;;;3.00;;
19889;SDS011;10107;51.198;6.824;2022-10-18T03:49:57;4.63;;;3.60;;
19889;SDS011;10107;51.198;6.824;2022-10-18T03:54:00;3.75;;;2.70;;
19889;SDS011;10107;51.198;6.824;2022-10-18T03:58:03;5.65;;;3.95;;
19889;SDS011;10107;51.198;6.824;2022-10-18T04:06:07;6.53;;;4.03;;
19889;SDS011;10107;51.198;6.824;2022-10-18T04:10:09;5.50;;;4.20;;
19889;SDS011;10107;51.198;6.824;2022-10-18T04:14:12;5.65;;;4.32;;
19889;SDS011;10107;51.198;6.824;2022-10-18T04:18:14;6.80;;;4.27;;
19889;SDS011;10107;51.198;6.824;2022-10-18T04:22:15;5.55;;;4.68;;
19889;SDS011;10107;51.198;6.824;2022-10-18T04:26:17;5.38;;;4.38;;
19889;SDS011;10107;51.198;6.824;2022-10-18T04:30:20;5.13;;;3.75;;
19889;SDS011;10107;51.198;6.824;2022-10-18T04:34:22;4.90;;;3.73;;
19889;SDS011;10107;51.198;6.824;2022-10-18T04:38:23;7.18;;;4.13;;
19889;SDS011;10107;51.198;6.824;2022-10-18T04:42:25;4.80;;;3.90;;
19889;SDS011;10107;51.198;6.824;2022-10-18T04:46:28;4.95;;;3.78;;
19889;SDS011;10107;51.198;6.824;2022-10-18T04:50:30;3.75;;;2.75;;
19889;SDS011;10107;51.198;6.824;2022-10-18T04:54:32;5.65;;;3.97;;
19889;SDS011;10107;51.198;6.824;2022-10-18T04:58:33;5.57;;;4.00;;
19889;SDS011;10107;51.198;6.824;2022-10-18T05:02:36;5.35;;;3.95;;
19889;SDS011;10107;51.198;6.824;2022-10-18T05:06:38;6.23;;;4.53;;
19889;SDS011;10107;51.198;6.824;2022-10-18T05:10:40;5.03;;;4.07;;
19889;SDS011;10107;51.198;6.824;2022-10-18T05:14:41;6.05;;;3.90;;
19889;SDS011;10107;51.198;6.824;2022-10-18T05:18:44;5.13;;;4.00;;
19889;SDS011;10107;51.198;6.824;2022-10-18T05:22:46;4.93;;;3.37;;
19889;SDS011;10107;51.198;6.824;2022-10-18T05:26:48;7.30;;;4.47;;
19889;SDS011;10107;51.198;6.824;2022-10-18T05:30:49;5.82;;;4.57;;
19889;SDS011;10107;51.198;6.824;2022-10-18T05:34:52;5.55;;;4.28;;
19889;SDS011;10107;51.198;6.824;2022-10-18T05:38:54;6.13;;;4.30;;
19889;SDS011;10107;51.198;6.824;2022-10-18T05:42:56;7.47;;;4.60;;
19889;SDS011;10107;51.198;6.824;2022-10-18T05:46:57;7.47;;;5.22;;
19889;SDS011;10107;51.198;6.824;2022-10-18T05:51:00;15.35;;;8.63;;
19889;SDS011;10107;51.198;6.824;2022-10-18T05:55:02;10.15;;;6.15;;
19889;SDS011;10107;51.198;6.824;2022-10-18T05:59:04;8.85;;;5.90;;
19889;SDS011;10107;51.198;6.824;2022-10-18T06:03:09;8.73;;;5.78;;
19889;SDS011;10107;51.198;6.824;2022-10-18T06:07:12;9.90;;;5.80;;
19889;SDS011;10107;51.198;6.824;2022-10-18T06:11:15;6.23;;;3.70;;
19889;SDS011;10107;51.198;6.824;2022-10-18T06:15:18;8.75;;;5.82;;
19889;SDS011;10107;51.198;6.824;2022-10-18T06:19:20;12.00;;;7.10;;
19889;SDS011;10107;51.198;6.824;2022-10-18T06:23:23;12.05;;;7.15;;
19889;SDS011;10107;51.198;6.824;2022-10-18T06:27:25;7.07;;;4.77;;
19889;SDS011;10107;51.198;6.824;2022-10-18T06:31:26;10.55;;;6.93;;
19889;SDS011;10107;51.198;6.824;2022-10-18T06:35:28;14.07;;;7.88;;
19889;SDS011;10107;51.198;6.824;2022-10-18T06:39:31;14.07;;;7.38;;
19889;SDS011;10107;51.198;6.824;2022-10-18T06:43:33;14.83;;;7.67;;
19889;SDS011;10107;51.198;6.824;2022-10-18T06:47:35;12.85;;;7.78;;
19889;SDS011;10107;51.198;6.824;2022-10-18T06:51:37;12.60;;;7.80;;
19889;SDS011;10107;51.198;6.824;2022-10-18T06:55:40;14.40;;;8.10;;
19889;SDS011;10107;51.198;6.824;2022-10-18T06:59:41;14.57;;;8.23;;
19889;SDS011;10107;51.198;6.824;2022-10-18T07:03:43;16.23;;;8.52;;
19889;SDS011;10107;51.198;6.824;2022-10-18T07:07:45;13.63;;;7.88;;
19889;SDS011;10107;51.198;6.824;2022-10-18T07:11:48;12.00;;;7.72;;
19889;SDS011;10107;51.198;6.824;2022-10-18T07:15:58;13.65;;;8.10;;
19889;SDS011;10107;51.198;6.824;2022-10-18T07:37:56;13.20;;;7.97;;
19889;SDS011;10107;51.198;6.824;2022-10-18T07:41:58;14.33;;;8.77;;
19889;SDS011;10107;51.198;6.824;2022-10-18T07:46:01;19.27;;;10.77;;
19889;SDS011;10107;51.198;6.824;2022-10-18T07:50:04;15.30;;;9.35;;
19889;SDS011;10107;51.198;6.824;2022-10-18T07:54:08;15.95;;;9.85;;
19889;SDS011;10107;51.198;6.824;2022-10-18T07:58:10;19.05;;;11.25;;
19889;SDS011;10107;51.198;6.824;2022-10-18T08:02:11;19.05;;;12.23;;
19889;SDS011;10107;51.198;6.824;2022-10-18T08:06:14;18.40;;;11.18;;
19889;SDS011;10107;51.198;6.824;2022-10-18T08:10:19;20.50;;;12.40;;
19889;SDS011;10107;51.198;6.824;2022-10-18T08:14:20;18.33;;;11.30;;
19889;SDS011;10107;51.198;6.824;2022-10-18T08:18:22;18.70;;;12.10;;
19889;SDS011;10107;51.198;6.824;2022-10-18T08:22:23;21.02;;;12.65;;
19889;SDS011;10107;51.198;6.824;2022-10-18T08:26:27;17.90;;;11.40;;
19889;SDS011;10107;51.198;6.824;2022-10-18T08:30:28;24.67;;;13.43;;
19889;SDS011;10107;51.198;6.824;2022-10-18T08:34:30;19.55;;;11.55;;
19889;SDS011;10107;51.198;6.824;2022-10-18T08:38:33;20.65;;;11.95;;
19889;SDS011;10107;51.198;6.824;2022-10-18T08:42:45;18.55;;;11.77;;
19889;SDS011;10107;51.198;6.824;2022-10-18T08:46:59;25.80;;;14.43;;
19889;SDS011;10107;51.198;6.824;2022-10-18T08:51:06;26.85;;;15.02;;
19889;SDS011;10107;51.198;6.824;2022-10-18T08:55:21;22.42;;;12.75;;
19889;SDS011;10107;51.198;6.824;2022-10-18T08:59:29;27.08;;;14.45;;
19889;SDS011;10107;51.198;6.824;2022-10-18T09:03:46;30.38;;;15.50;;
19889;SDS011;10107;51.198;6.824;2022-10-18T09:08:10;25.50;;;15.15;;
19889;SDS011;10107;51.198;6.824;2022-10-18T09:12:26;23.80;;;13.45;;
19889;SDS011;10107;51.198;6.824;2022-10-18T09:16:44;23.00;;;13.68;;
19889;SDS011;10107;51.198;6.824;2022-10-18T09:20:57;32.95;;;18.42;;
19889;SDS011;10107;51.198;6.824;2022-10-18T09:25:01;25.65;;;14.90;;
19889;SDS011;10107;51.198;6.824;2022-10-18T09:29:11;36.20;;;19.98;;
19889;SDS011;10107;51.198;6.824;2022-10-18T09:33:31;38.08;;;21.00;;
19889;SDS011;10107;51.198;6.824;2022-10-18T09:37:40;34.90;;;19.70;;
19889;SDS011;10107;51.198;6.824;2022-10-18T09:41:44;31.30;;;19.48;;
19889;SDS011;10107;51.198;6.824;2022-10-18T09:45:50;31.35;;;19.45;;
19889;SDS011;10107;51.198;6.824;2022-10-18T09:49:56;34.67;;;21.45;;
19889;SDS011;10107;51.198;6.824;2022-10-18T09:54:03;34.58;;;21.88;;
19889;SDS011;10107;51.198;6.824;2022-10-18T09:58:14;25.30;;;13.75;;
19889;SDS011;10107;51.198;6.824;2022-10-18T10:02:19;30.67;;;18.92;;
19889;SDS011;10107;51.198;6.824;2022-10-18T10:06:24;27.48;;;16.20;;
19889;SDS011;10107;51.198;6.824;2022-10-18T10:10:28;25.73;;;16.90;;
19889;SDS011;10107;51.198;6.824;2022-10-18T10:14:30;27.73;;;18.53;;
19889;SDS011;10107;51.198;6.824;2022-10-18T10:18:43;25.08;;;16.05;;
19889;SDS011;10107;51.198;6.824;2022-10-18T10:22:54;29.63;;;18.48;;
19889;SDS011;10107;51.198;6.824;2022-10-18T10:27:13;20.05;;;14.65;;
19889;SDS011;10107;51.198;6.824;2022-10-18T10:31:23;25.42;;;17.20;;
19889;SDS011;10107;51.198;6.824;2022-10-18T10:35:28;21.67;;;15.18;;
19889;SDS011;10107;51.198;6.824;2022-10-18T10:39:33;23.02;;;15.40;;
19889;SDS011;10107;51.198;6.824;2022-10-18T10:43:35;59.47;;;30.97;;
19889;SDS011;10107;51.198;6.824;2022-10-18T10:47:38;63.03;;;32.33;;
19889;SDS011;10107;51.198;6.824;2022-10-18T10:51:40;60.58;;;32.15;;
19889;SDS011;10107;51.198;6.824;2022-10-18T10:55:44;54.40;;;28.73;;
19889;SDS011;10107;51.198;6.824;2022-10-18T10:59:46;42.10;;;22.17;;
19889;SDS011;10107;51.198;6.824;2022-10-18T11:03:50;57.65;;;29.30;;
19889;SDS011;10107;51.198;6.824;2022-10-18T11:07:54;52.10;;;29.23;;
19889;SDS011;10107;51.198;6.824;2022-10-18T11:12:04;42.83;;;25.30;;
19889;SDS011;10107;51.198;6.824;2022-10-18T11:16:15;42.92;;;25.17;;
19889;SDS011;10107;51.198;6.824;2022-10-18T11:20:25;46.83;;;26.92;;
19889;SDS011;10107;51.198;6.824;2022-10-18T11:24:31;44.83;;;25.67;;
19889;SDS011;10107;51.198;6.824;2022-10-18T11:28:44;46.28;;;26.48;;
19889;SDS011;10107;51.198;6.824;2022-10-18T11:33:00;46.40;;;24.65;;
19889;SDS011;10107;51.198;6.824;2022-10-18T11:37:08;36.97;;;21.98;;
19889;SDS011;10107;51.198;6.824;2022-10-18T11:41:25;37.40;;;21.95;;
19889;SDS011;10107;51.198;6.824;2022-10-18T11:45:34;33.17;;;19.52;;
19889;SDS011;10107;51.198;6.824;2022-10-18T11:49:47;31.30;;;19.17;;
19889;SDS011;10107;51.198;6.824;2022-10-18T11:54:01;21.38;;;13.88;;
19889;SDS011;10107;51.198;6.824;2022-10-18T11:58:23;25.05;;;15.57;;
19889;SDS011;10107;51.198;6.824;2022-10-18T12:02:50;20.42;;;13.48;;
19889;SDS011;10107;51.198;6.824;2022-10-18T12:07:03;19.60;;;13.07;;
19889;SDS011;10107;51.198;6.824;2022-10-18T12:11:08;19.90;;;12.50;;
19889;SDS011;10107;51.198;6.824;2022-10-18T12:15:15;20.27;;;12.13;;
19889;SDS011;10107;51.198;6.824;2022-10-18T12:19:21;16.05;;;10.40;;
19889;SDS011;10107;51.198;6.824;2022-10-18T12:23:29;18.42;;;11.80;;
19889;SDS011;10107;51.198;6.824;2022-10-18T12:27:38;16.75;;;11.38;;
19889;SDS011;10107;51.198;6.824;2022-10-18T12:31:49;15.02;;;10.63;;
19889;SDS011;10107;51.198;6.824;2022-10-18T12:35:58;17.65;;;10.57;;
19889;SDS011;10107;51.198;6.824;2022-10-18T12:40:09;18.70;;;11.68;;
19889;SDS011;10107;51.198;6.824;2022-10-18T12:44:17;19.67;;;11.35;;
19889;SDS011;10107;51.198;6.824;2022-10-18T12:48:34;16.73;;;10.10;;
19889;SDS011;10107;51.198;6.824;2022-10-18T12:52:39;14.02;;;7.95;;
19889;SDS011;10107;51.198;6.824;2022-10-18T12:56:41;14.35;;;8.52;;
19889;SDS011;10107;51.198;6.824;2022-10-18T13:00:53;13.25;;;8.13;;
19889;SDS011;10107;51.198;6.824;2022-10-18T13:05:03;13.93;;;8.30;;
19889;SDS011;10107;51.198;6.824;2022-10-18T13:09:41;13.90;;;7.80;;
19889;SDS011;10107;51.198;6.824;2022-10-18T13:18:43;13.30;;;7.35;;
19889;SDS011;10107;51.198;6.824;2022-10-18T13:22:58;10.20;;;6.63;;
19889;SDS011;10107;51.198;6.824;2022-10-18T13:31:35;16.08;;;9.60;;
19889;SDS011;10107;51.198;6.824;2022-10-18T13:35:51;16.05;;;9.13;;
19889;SDS011;10107;51.198;6.824;2022-10-18T13:44:23;13.15;;;7.63;;
19889;SDS011;10107;51.198;6.824;2022-10-18T13:48:45;16.02;;;9.38;;
19889;SDS011;10107;51.198;6.824;2022-10-18T13:52:58;13.35;;;7.45;;
19889;SDS011;10107;51.198;6.824;2022-10-18T13:57:27;14.07;;;7.53;;
19889;SDS011;10107;51.198;6.824;2022-10-18T14:01:46;13.48;;;7.22;;
19889;SDS011;10107;51.198;6.824;2022-10-18T14:06:00;13.43;;;8.80;;
19889;SDS011;10107;51.198;6.824;2022-10-18T14:10:08;10.98;;;6.38;;
19889;SDS011;10107;51.198;6.824;2022-10-18T14:14:16;8.10;;;5.22;;
19889;SDS011;10107;51.198;6.824;2022-10-18T14:18:27;10.27;;;5.53;;
19889;SDS011;10107;51.198;6.824;2022-10-18T14:22:33;11.35;;;4.90;;
19889;SDS011;10107;51.198;6.824;2022-10-18T14:26:38;7.75;;;4.18;;
19889;SDS011;10107;51.198;6.824;2022-10-18T14:30:53;7.90;;;4.75;;
19889;SDS011;10107;51.198;6.824;2022-10-18T14:34:58;8.48;;;4.85;;
19889;SDS011;10107;51.198;6.824;2022-10-18T14:39:00;8.82;;;4.78;;
19889;SDS011;10107;51.198;6.824;2022-10-18T14:43:05;8.95;;;5.35;;
19889;SDS011;10107;51.198;6.824;2022-10-18T14:47:12;7.28;;;4.38;;
19889;SDS011;10107;51.198;6.824;2022-10-18T14:51:18;12.85;;;5.32;;
19889;SDS011;10107;51.198;6.824;2022-10-18T14:55:22;9.18;;;4.65;;
19889;SDS011;10107;51.198;6.824;2022-10-18T14:59:26;9.40;;;4.18;;
19889;SDS011;10107;51.198;6.824;2022-10-18T15:03:31;6.32;;;4.30;;
19889;SDS011;10107;51.198;6.824;2022-10-18T15:07:37;6.88;;;4.13;;
19889;SDS011;10107;51.198;6.824;2022-10-18T15:11:39;7.35;;;3.95;;
19889;SDS011;10107;51.198;6.824;2022-10-18T15:15:44;9.85;;;4.70;;
19889;SDS011;10107;51.198;6.824;2022-10-18T15:19:54;6.00;;;3.10;;
19889;SDS011;10107;51.198;6.824;2022-10-18T15:28:23;6.15;;;2.90;;
19889;SDS011;10107;51.198;6.824;2022-10-18T15:32:29;7.63;;;3.10;;
19889;SDS011;10107;51.198;6.824;2022-10-18T15:36:31;4.68;;;2.75;;
19889;SDS011;10107;51.198;6.824;2022-10-18T15:40:37;5.82;;;2.53;;
19889;SDS011;10107;51.198;6.824;2022-10-18T15:44:45;7.72;;;3.30;;
19889;SDS011;10107;51.198;6.824;2022-10-18T15:48:50;7.43;;;2.90;;
19889;SDS011;10107;51.198;6.824;2022-10-18T15:52:51;7.40;;;2.92;;
19889;SDS011;10107;51.198;6.824;2022-10-18T15:56:54;5.85;;;2.92;;
19889;SDS011;10107;51.198;6.824;2022-10-18T16:00:58;7.78;;;3.40;;
19889;SDS011;10107;51.198;6.824;2022-10-18T16:05:01;6.32;;;2.90;;
19889;SDS011;10107;51.198;6.824;2022-10-18T16:09:03;5.53;;;2.92;;
19889;SDS011;10107;51.198;6.824;2022-10-18T16:13:06;5.63;;;2.70;;
19889;SDS011;10107;51.198;6.824;2022-10-18T16:17:09;2.83;;;2.03;;
19889;SDS011;10107;51.198;6.824;2022-10-18T16:21:17;5.10;;;2.55;;
19889;SDS011;10107;51.198;6.824;2022-10-18T16:25:20;4.03;;;2.80;;
19889;SDS011;10107;51.198;6.824;2022-10-18T16:29:23;5.97;;;2.80;;
19889;SDS011;10107;51.198;6.824;2022-10-18T16:33:27;6.57;;;2.47;;
19889;SDS011;10107;51.198;6.824;2022-10-18T16:37:29;4.57;;;2.30;;
19889;SDS011;10107;51.198;6.824;2022-10-18T16:41:31;4.07;;;2.63;;
19889;SDS011;10107;51.198;6.824;2022-10-18T16:45:34;5.50;;;2.58;;
19889;SDS011;10107;51.198;6.824;2022-10-18T16:49:36;3.67;;;2.25;;
19889;SDS011;10107;51.198;6.824;2022-10-18T16:53:39;4.55;;;2.38;;
19889;SDS011;10107;51.198;6.824;2022-10-18T16:57:41;5.43;;;2.67;;
19889;SDS011;10107;51.198;6.824;2022-10-18T17:01:45;5.82;;;2.95;;
19889;SDS011;10107;51.198;6.824;2022-10-18T17:05:46;4.32;;;3.10;;
19889;SDS011;10107;51.198;6.824;2022-10-18T17:09:48;4.97;;;3.25;;
19889;SDS011;10107;51.198;6.824;2022-10-18T17:13:50;4.97;;;3.30;;
19889;SDS011;10107;51.198;6.824;2022-10-18T17:17:53;6.72;;;3.35;;
19889;SDS011;10107;51.198;6.824;2022-10-18T17:21:55;4.27;;;2.23;;
19889;SDS011;10107;51.198;6.824;2022-10-18T17:25:56;5.47;;;3.67;;
19889;SDS011;10107;51.198;6.824;2022-10-18T17:29:58;5.47;;;3.30;;
19889;SDS011;10107;51.198;6.824;2022-10-18T17:34:02;5.15;;;3.60;;
19889;SDS011;10107;51.198;6.824;2022-10-18T17:38:04;5.38;;;3.20;;
19889;SDS011;10107;51.198;6.824;2022-10-18T17:42:06;7.30;;;3.92;;
19889;SDS011;10107;51.198;6.824;2022-10-18T17:46:09;5.53;;;3.80;;
19889;SDS011;10107;51.198;6.824;2022-10-18T17:50:13;6.68;;;4.35;;
19889;SDS011;10107;51.198;6.824;2022-10-18T17:54:15;5.85;;;4.07;;
19889;SDS011;10107;51.198;6.824;2022-10-18T17:58:17;6.20;;;4.22;;
19889;SDS011;10107;51.198;6.824;2022-10-18T18:02:18;8.35;;;4.40;;
19889;SDS011;10107;51.198;6.824;2022-10-18T18:06:22;6.95;;;4.40;;
19889;SDS011;10107;51.198;6.824;2022-10-18T18:10:30;7.50;;;5.03;;
19889;SDS011;10107;51.198;6.824;2022-10-18T18:14:32;8.65;;;5.40;;
19889;SDS011;10107;51.198;6.824;2022-10-18T18:18:34;10.85;;;6.05;;
19889;SDS011;10107;51.198;6.824;2022-10-18T18:22:37;9.43;;;5.47;;
19889;SDS011;10107;51.198;6.824;2022-10-18T18:26:40;8.57;;;5.40;;
19889;SDS011;10107;51.198;6.824;2022-10-18T18:30:42;8.48;;;4.90;;
19889;SDS011;10107;51.198;6.824;2022-10-18T18:34:44;8.25;;;5.03;;
19889;SDS011;10107;51.198;6.824;2022-10-18T18:38:47;7.72;;;5.20;;
19889;SDS011;10107;51.198;6.824;2022-10-18T18:42:51;9.18;;;5.47;;
19889;SDS011;10107;51.198;6.824;2022-10-18T18:46:53;10.00;;;5.65;;
19889;SDS011;10107;51.198;6.824;2022-10-18T18:50:55;8.75;;;5.40;;
19889;SDS011;10107;51.198;6.824;2022-10-18T18:54:58;9.13;;;5.70;;
19889;SDS011;10107;51.198;6.824;2022-10-18T18:59:00;9.63;;;5.00;;
19889;SDS011;10107;51.198;6.824;2022-10-18T19:03:01;10.07;;;5.68;;
19889;SDS011;10107;51.198;6.824;2022-10-18T19:07:03;11.65;;;6.15;;
19889;SDS011;10107;51.198;6.824;2022-10-18T19:11:06;8.48;;;5.63;;
19889;SDS011;10107;51.198;6.824;2022-10-18T19:15:08;9.63;;;5.78;;
19889;SDS011;10107;51.198;6.824;2022-10-18T19:19:12;9.43;;;5.50;;
19889;SDS011;10107;51.198;6.824;2022-10-18T19:23:15;8.15;;;5.78;;
19889;SDS011;10107;51.198;6.824;2022-10-18T19:27:18;10.27;;;6.57;;
19889;SDS011;10107;51.198;6.824;2022-10-18T19:31:20;6.97;;;4.35;;
19889;SDS011;10107;51.198;6.824;2022-10-18T19:35:23;8.00;;;4.80;;
19889;SDS011;10107;51.198;6.824;2022-10-18T19:39:26;10.10;;;6.20;;
19889;SDS011;10107;51.198;6.824;2022-10-18T19:43:30;12.77;;;7.30;;
19889;SDS011;10107;51.198;6.824;2022-10-18T19:47:32;9.65;;;6.55;;
19889;SDS011;10107;51.198;6.824;2022-10-18T19:51:34;9.30;;;6.60;;
19889;SDS011;10107;51.198;6.824;2022-10-18T19:55:36;8.63;;;6.25;;
19889;SDS011;10107;51.198;6.824;2022-10-18T19:59:39;9.32;;;6.10;;
19889;SDS011;10107;51.198;6.824;2022-10-18T20:03:41;5.57;;;3.93;;
19889;SDS011;10107;51.198;6.824;2022-10-18T20:07:43;9.77;;;5.60;;
19889;SDS011;10107;51.198;6.824;2022-10-18T20:11:46;8.40;;;5.65;;
19889;SDS011;10107;51.198;6.824;2022-10-18T20:15:50;7.47;;;5.20;;
19889;SDS011;10107;51.198;6.824;2022-10-18T20:19:52;8.07;;;5.25;;
19889;SDS011;10107;51.198;6.824;2022-10-18T20:23:53;7.70;;;5.10;;
19889;SDS011;10107;51.198;6.824;2022-10-18T20:27:55;7.65;;;5.32;;
19889;SDS011;10107;51.198;6.824;2022-10-18T20:31:58;8.57;;;5.43;;
19889;SDS011;10107;51.198;6.824;2022-10-18T20:36:00;7.37;;;5.23;;
19889;SDS011;10107;51.198;6.824;2022-10-18T20:40:03;8.57;;;5.45;;
19889;SDS011;10107;51.198;6.824;2022-10-18T20:44:06;9.93;;;5.43;;
19889;SDS011;10107;51.198;6.824;2022-10-18T20:48:13;8.25;;;5.70;;
19889;SDS011;10107;51.198;6.824;2022-10-18T20:52:15;5.43;;;3.73;;
19889;SDS011;10107;51.198;6.824;2022-10-18T20:56:18;8.13;;;5.18;;
19889;SDS011;10107;51.198;6.824;2022-10-18T21:00:21;8.50;;;5.35;;
19889;SDS011;10107;51.198;6.824;2022-10-18T21:04:24;9.13;;;5.82;;
19889;SDS011;10107;51.198;6.824;2022-10-18T21:08:26;5.60;;;4.13;;
19889;SDS011;10107;51.198;6.824;2022-10-18T21:12:28;7.65;;;5.72;;
19889;SDS011;10107;51.198;6.824;2022-10-18T21:16:30;10.18;;;6.10;;
19889;SDS011;10107;51.198;6.824;2022-10-18T21:20:34;9.88;;;5.90;;
19889;SDS011;10107;51.198;6.824;2022-10-18T21:24:36;5.00;;;3.77;;
19889;SDS011;10107;51.198;6.824;2022-10-18T21:28:37;8.93;;;5.63;;
19889;SDS011;10107;51.198;6.824;2022-10-18T21:32:39;8.00;;;5.00;;
19889;SDS011;10107;51.198;6.824;2022-10-18T21:36:43;8.98;;;5.10;;
19889;SDS011;10107;51.198;6.824;2022-10-18T21:40:46;7.75;;;4.68;;
19889;SDS011;10107;51.198;6.824;2022-10-18T21:44:47;7.03;;;4.55;;
19889;SDS011;10107;51.198;6.824;2022-10-18T21:48:50;9.20;;;5.03;;
19889;SDS011;10107;51.198;6.824;2022-10-18T21:52:54;8.02;;;4.72;;
19889;SDS011;10107;51.198;6.824;2022-10-18T21:56:55;8.98;;;4.70;;
19889;SDS011;10107;51.198;6.824;2022-10-18T22:00:57;6.18;;;4.70;;
19889;SDS011;10107;51.198;6.824;2022-10-18T22:04:59;6.97;;;4.78;;
19889;SDS011;10107;51.198;6.824;2022-10-18T22:09:03;8.35;;;4.60;;
19889;SDS011;10107;51.198;6.824;2022-10-18T22:13:07;5.53;;;4.05;;
19889;SDS011;10107;51.198;6.824;2022-10-18T22:17:09;6.38;;;4.03;;
19889;SDS011;10107;51.198;6.824;2022-10-18T22:21:11;6.05;;;4.25;;
19889;SDS011;10107;51.198;6.824;2022-10-18T22:25:15;7.80;;;3.90;;
19889;SDS011;10107;51.198;6.824;2022-10-18T22:29:17;4.70;;;3.10;;
19889;SDS011;10107;51.198;6.824;2022-10-18T22:33:21;7.32;;;3.90;;
19889;SDS011;10107;51.198;6.824;2022-10-18T22:37:23;7.10;;;4.47;;
19889;SDS011;10107;51.198;6.824;2022-10-18T22:41:26;6.60;;;3.95;;
19889;SDS011;10107;51.198;6.824;2022-10-18T22:45:28;4.10;;;2.95;;
19889;SDS011;10107;51.198;6.824;2022-10-18T22:49:30;7.00;;;4.50;;
19889;SDS011;10107;51.198;6.824;2022-10-18T22:53:32;9.43;;;4.88;;
19889;SDS011;10107;51.198;6.824;2022-10-18T22:57:36;8.98;;;5.38;;
19889;SDS011;10107;51.198;6.824;2022-10-18T23:01:38;6.07;;;3.70;;
19889;SDS011;10107;51.198;6.824;2022-10-18T23:05:40;6.57;;;4.47;;
19889;SDS011;10107;51.198;6.824;2022-10-18T23:09:42;7.22;;;4.60;;
19889;SDS011;10107;51.198;6.824;2022-10-18T23:13:45;6.38;;;4.15;;
19889;SDS011;10107;51.198;6.824;2022-10-18T23:17:48;5.80;;;4.38;;
19889;SDS011;10107;51.198;6.824;2022-10-18T23:21:53;7.57;;;4.30;;
19889;SDS011;10107;51.198;6.824;2022-10-18T23:25:55;5.80;;;3.97;;
19889;SDS011;10107;51.198;6.824;2022-10-18T23:29:58;5.75;;;3.50;;
19889;SDS011;10107;51.198;6.824;2022-10-18T23:34:01;6.13;;;4.18;;
19889;SDS011;10107;51.198;6.824;2022-10-18T23:38:03;5.70;;;3.95;;
19889;SDS011;10107;51.198;6.824;2022-10-18T23:42:05;6.47;;;3.97;;
19889;SDS011;10107;51.198;6.824;2022-10-18T23:46:08;6.05;;;3.67;;
19889;SDS011;10107;51.198;6.824;2022-10-18T23:54:12;5.47;;;3.50;;
19889;SDS011;10107;51.198;6.824;2022-10-18T23:58:14;4.53;;;3.30;;
